createdAt,value
2019-01-30T00:01:53.261Z,6.50
2019-01-30T00:04:25.709Z,6.00
2019-01-30T00:06:55.095Z,5.80
2019-01-30T00:09:24.674Z,5.83
2019-01-30T00:11:54.201Z,6.37
2019-01-30T00:14:23.977Z,5.63
2019-01-30T00:16:52.817Z,5.67
2019-01-30T00:19:19.293Z,6.40
2019-01-30T00:21:45.872Z,5.57
2019-01-30T00:24:15.246Z,5.40
2019-01-30T00:26:41.953Z,5.50
2019-01-30T00:29:08.554Z,5.27
2019-01-30T00:31:36.307Z,5.10
2019-01-30T00:34:03.341Z,5.80
2019-01-30T00:36:31.961Z,5.43
2019-01-30T00:38:58.733Z,5.33
2019-01-30T00:41:25.260Z,5.83
2019-01-30T00:43:51.789Z,5.73
2019-01-30T00:46:18.582Z,5.70
2019-01-30T00:48:47.987Z,5.80
2019-01-30T00:51:14.581Z,5.30
2019-01-30T00:53:41.736Z,5.57
2019-01-30T00:56:08.377Z,5.47
2019-01-30T00:58:35.127Z,5.57
2019-01-30T01:01:05.054Z,6.03
2019-01-30T01:03:34.319Z,6.57
2019-01-30T01:06:05.074Z,6.30
2019-01-30T01:08:34.441Z,5.63
2019-01-30T01:11:04.241Z,5.27
2019-01-30T01:13:35.374Z,5.13
2019-01-30T01:16:08.817Z,6.03
2019-01-30T01:18:35.456Z,5.77
2019-01-30T01:21:05.279Z,5.30
2019-01-30T01:23:34.884Z,6.07
2019-01-30T01:26:02.388Z,6.73
2019-01-30T01:28:28.854Z,6.10
2019-01-30T01:30:55.654Z,7.07
2019-01-30T01:33:27.331Z,5.90
2019-01-30T01:35:53.882Z,7.07
2019-01-30T01:38:20.484Z,6.10
2019-01-30T01:40:47.411Z,6.73
2019-01-30T01:43:14.099Z,6.73
2019-01-30T01:45:41.930Z,6.77
2019-01-30T01:48:08.472Z,6.10
2019-01-30T01:50:35.191Z,7.37
2019-01-30T01:53:05.967Z,5.67
2019-01-30T01:55:32.962Z,6.70
2019-01-30T01:58:02.461Z,5.97
2019-01-30T02:00:35.190Z,6.00
2019-01-30T02:02:57.678Z,7.43
2019-01-30T02:05:24.206Z,7.27
2019-01-30T02:07:53.546Z,7.23
2019-01-30T02:10:23.016Z,6.90
2019-01-30T02:12:51.630Z,7.07
2019-01-30T02:15:22.520Z,7.73
2019-01-30T02:17:52.034Z,7.33
2019-01-30T02:20:26.961Z,7.60
2019-01-30T02:22:53.607Z,6.90
2019-01-30T02:25:22.648Z,6.97
2019-01-30T02:27:49.141Z,6.97
2019-01-30T02:30:18.123Z,8.03
2019-01-30T02:32:47.262Z,6.93
2019-01-30T02:35:16.843Z,7.53
2019-01-30T02:37:46.810Z,6.67
2019-01-30T02:40:15.712Z,7.43
2019-01-30T02:42:42.217Z,7.33
2019-01-30T02:45:14.695Z,7.07
2019-01-30T02:47:42.091Z,6.93
2019-01-30T02:50:11.637Z,6.90
2019-01-30T02:52:38.258Z,6.40
2019-01-30T02:55:06.567Z,7.23
2019-01-30T02:57:33.107Z,5.63
2019-01-30T03:00:01.440Z,6.47
2019-01-30T03:02:28.277Z,7.17
2019-01-30T03:04:54.858Z,5.50
2019-01-30T03:07:24.450Z,6.60
2019-01-30T03:09:53.732Z,4.87
2019-01-30T03:12:22.110Z,5.57
2019-01-30T03:14:48.668Z,6.03
2019-01-30T03:17:15.148Z,6.50
2019-01-30T03:19:44.450Z,5.40
2019-01-30T03:22:13.739Z,6.10
2019-01-30T03:24:42.007Z,6.23
2019-01-30T03:27:08.530Z,5.27
2019-01-30T03:29:35.318Z,6.10
2019-01-30T03:32:01.898Z,6.80
2019-01-30T03:34:28.411Z,6.37
2019-01-30T03:36:55.025Z,5.43
2019-01-30T03:39:25.791Z,5.87
2019-01-30T03:41:52.690Z,5.50
2019-01-30T03:44:19.639Z,6.30
2019-01-30T03:46:46.134Z,6.07
2019-01-30T03:49:13.462Z,5.40
2019-01-30T03:51:45.387Z,6.07
2019-01-30T03:54:12.169Z,6.63
2019-01-30T03:56:38.669Z,7.03
2019-01-30T03:59:05.167Z,7.23
2019-01-30T04:01:31.955Z,6.77
2019-01-30T04:03:58.678Z,5.73
2019-01-30T04:06:25.507Z,5.63
2019-01-30T04:08:52.238Z,5.47
2019-01-30T04:11:22.538Z,5.53
2019-01-30T04:13:53.203Z,5.57
2019-01-30T04:16:22.993Z,6.97
2019-01-30T04:18:51.617Z,6.37
2019-01-30T04:21:18.078Z,6.90
2019-01-30T04:23:46.641Z,5.73
2019-01-30T04:26:13.222Z,5.53
2019-01-30T04:28:42.409Z,5.60
2019-01-30T04:31:11.531Z,5.33
2019-01-30T04:33:37.982Z,5.50
2019-01-30T04:36:04.484Z,6.03
2019-01-30T04:38:33.761Z,5.73
2019-01-30T04:41:08.549Z,5.57
2019-01-30T04:43:35.521Z,5.60
2019-01-30T04:46:02.349Z,4.97
2019-01-30T04:48:31.812Z,5.47
2019-01-30T04:51:01.537Z,6.23
2019-01-30T04:53:31.165Z,5.70
2019-01-30T04:56:01.729Z,6.70
2019-01-30T04:58:28.196Z,6.63
2019-01-30T05:00:54.999Z,5.97
2019-01-30T05:03:24.442Z,6.17
2019-01-30T05:05:51.682Z,5.77
2019-01-30T05:08:20.362Z,6.17
2019-01-30T05:10:46.804Z,6.60
2019-01-30T05:13:13.314Z,6.27
2019-01-30T05:15:43.138Z,5.63
2019-01-30T05:18:12.009Z,5.77
2019-01-30T05:20:41.993Z,5.57
2019-01-30T05:23:11.998Z,5.07
2019-01-30T05:25:40.667Z,5.57
2019-01-30T05:28:07.468Z,4.97
2019-01-30T05:30:34.310Z,5.03
2019-01-30T05:33:04.042Z,6.17
2019-01-30T05:35:35.063Z,5.23
2019-01-30T05:38:01.595Z,5.43
2019-01-30T05:40:31.340Z,5.30
2019-01-30T05:42:57.861Z,5.83
2019-01-30T05:45:24.481Z,5.83
2019-01-30T05:47:51.747Z,4.87
2019-01-30T05:50:22.280Z,5.33
2019-01-30T05:52:51.301Z,5.67
2019-01-30T05:55:17.948Z,5.23
2019-01-30T05:57:46.294Z,5.47
2019-01-30T06:00:22.548Z,5.43
2019-01-30T06:02:51.837Z,3.87
2019-01-30T06:05:20.402Z,4.97
2019-01-30T06:07:47.241Z,5.13
2019-01-30T06:10:13.912Z,5.27
2019-01-30T06:12:41.732Z,5.53
2019-01-30T06:15:12.568Z,5.57
2019-01-30T06:17:42.231Z,4.97
2019-01-30T06:20:12.510Z,4.57
2019-01-30T06:22:41.808Z,4.90
2019-01-30T06:25:10.439Z,4.13
2019-01-30T06:27:36.925Z,4.40
2019-01-30T06:30:04.804Z,5.57
2019-01-30T06:32:31.331Z,4.73
2019-01-30T06:35:01.161Z,4.17
2019-01-30T06:37:33.744Z,4.43
2019-01-30T06:40:00.742Z,4.30
2019-01-30T06:42:27.531Z,4.97
2019-01-30T06:44:54.512Z,4.93
2019-01-30T06:47:21.207Z,4.90
2019-01-30T06:49:48.747Z,4.67
2019-01-30T06:52:15.544Z,4.10
2019-01-30T06:54:42.284Z,4.27
2019-01-30T06:57:09.138Z,4.70
2019-01-30T06:59:35.644Z,4.47
2019-01-30T07:02:02.300Z,4.47
2019-01-30T07:04:28.864Z,5.00
2019-01-30T07:06:55.390Z,4.80
2019-01-30T07:09:21.889Z,4.23
2019-01-30T07:11:48.496Z,4.70
2019-01-30T07:14:15.315Z,4.03
2019-01-30T07:16:41.821Z,4.50
2019-01-30T07:19:08.326Z,4.03
2019-01-30T07:21:35.338Z,6.90
2019-01-30T07:24:01.918Z,9.07
2019-01-30T07:26:28.648Z,6.80
2019-01-30T07:28:55.233Z,7.10
2019-01-30T07:31:21.879Z,4.13
2019-01-30T07:33:50.378Z,5.60
2019-01-30T07:36:17.150Z,4.97
2019-01-30T07:38:43.768Z,5.00
2019-01-30T07:41:10.407Z,4.47
2019-01-30T07:43:36.928Z,4.43
2019-01-30T07:46:03.602Z,4.83
2019-01-30T07:48:33.473Z,4.43
2019-01-30T07:51:00.060Z,3.90
2019-01-30T07:53:26.635Z,3.73
2019-01-30T07:55:53.251Z,3.83
2019-01-30T07:58:19.701Z,3.80
2019-01-30T08:00:46.326Z,3.53
2019-01-30T08:03:12.916Z,3.17
2019-01-30T08:05:39.559Z,3.60
2019-01-30T08:08:06.197Z,3.60
2019-01-30T08:10:32.767Z,3.63
2019-01-30T08:12:59.668Z,3.30
2019-01-30T08:15:26.413Z,3.30
2019-01-30T08:17:53.174Z,4.53
2019-01-30T08:20:20.440Z,3.50
2019-01-30T08:22:47.391Z,3.93
2019-01-30T08:25:16.410Z,3.63
2019-01-30T08:27:48.483Z,3.20
2019-01-30T08:30:22.557Z,3.00
2019-01-30T08:32:46.585Z,3.37
2019-01-30T08:35:13.938Z,3.80
2019-01-30T08:37:41.161Z,3.10
2019-01-30T08:40:08.056Z,4.20
2019-01-30T08:42:34.710Z,3.87
2019-01-30T08:45:01.444Z,3.00
2019-01-30T08:47:28.000Z,3.60
2019-01-30T08:49:54.559Z,4.07
2019-01-30T08:52:21.149Z,3.40
2019-01-30T08:54:47.778Z,3.30
2019-01-30T08:57:14.668Z,3.40
2019-01-30T08:59:41.337Z,3.83
2019-01-30T09:02:08.356Z,3.13
2019-01-30T09:04:34.926Z,4.27
2019-01-30T09:07:01.413Z,3.23
2019-01-30T09:09:27.917Z,4.23
2019-01-30T09:11:54.444Z,4.27
2019-01-30T09:14:21.135Z,3.47
2019-01-30T09:16:47.626Z,4.03
2019-01-30T09:19:17.117Z,3.73
2019-01-30T09:21:43.984Z,3.80
2019-01-30T09:24:10.706Z,3.27
2019-01-30T09:26:37.448Z,3.40
2019-01-30T09:29:04.005Z,4.00
2019-01-30T09:31:30.783Z,3.80
2019-01-30T09:33:57.588Z,3.37
2019-01-30T09:36:24.217Z,3.83
2019-01-30T09:38:51.914Z,4.00
2019-01-30T09:41:18.557Z,4.00
2019-01-30T09:43:45.040Z,4.30
2019-01-30T09:46:11.636Z,3.60
2019-01-30T09:48:39.653Z,3.67
2019-01-30T09:51:08.259Z,4.27
2019-01-30T09:53:35.664Z,4.17
2019-01-30T09:56:02.726Z,3.50
2019-01-30T09:58:29.230Z,4.13
2019-01-30T10:00:55.985Z,3.43
2019-01-30T10:03:22.503Z,3.40
2019-01-30T10:05:49.354Z,3.63
2019-01-30T10:08:15.807Z,3.33
2019-01-30T10:10:42.288Z,3.37
2019-01-30T10:13:09.170Z,3.50
2019-01-30T10:15:37.771Z,3.27
2019-01-30T10:18:04.713Z,3.77
2019-01-30T10:20:31.624Z,3.93
2019-01-30T10:22:59.566Z,3.77
2019-01-30T10:25:26.273Z,4.27
2019-01-30T10:27:52.895Z,3.57
2019-01-30T10:30:24.829Z,3.63
2019-01-30T10:32:51.411Z,4.03
2019-01-30T10:35:18.113Z,3.50
2019-01-30T10:37:45.478Z,3.67
2019-01-30T10:40:14.329Z,3.50
2019-01-30T10:42:46.004Z,3.60
2019-01-30T10:45:12.858Z,3.57
2019-01-30T10:47:39.476Z,3.40
2019-01-30T10:50:07.788Z,3.13
2019-01-30T10:52:34.393Z,4.07
2019-01-30T10:55:00.909Z,3.30
2019-01-30T10:57:27.496Z,3.00
2019-01-30T10:59:54.227Z,2.97
2019-01-30T11:02:23.328Z,3.20
2019-01-30T11:04:56.230Z,3.00
2019-01-30T11:07:26.243Z,2.73
2019-01-30T11:09:53.252Z,2.93
2019-01-30T11:12:19.928Z,2.63
2019-01-30T11:14:47.918Z,2.80
2019-01-30T11:17:14.367Z,2.53
2019-01-30T11:19:42.057Z,2.90
2019-01-30T11:22:09.035Z,2.53
2019-01-30T11:24:35.601Z,2.80
2019-01-30T11:27:02.121Z,2.60
2019-01-30T11:29:29.240Z,3.37
2019-01-30T11:31:55.762Z,3.30
2019-01-30T11:34:22.278Z,2.40
2019-01-30T11:36:50.972Z,2.80
2019-01-30T11:39:17.476Z,2.70
2019-01-30T11:41:44.103Z,3.00
2019-01-30T11:44:11.300Z,2.57
2019-01-30T11:46:37.769Z,3.30
2019-01-30T11:49:05.077Z,3.03
2019-01-30T11:51:31.557Z,3.33
2019-01-30T11:53:58.131Z,3.17
2019-01-30T11:56:24.861Z,3.37
2019-01-30T11:59:01.124Z,3.20
2019-01-30T12:01:27.957Z,2.93
2019-01-30T12:03:54.527Z,2.90
2019-01-30T12:06:21.174Z,3.17
2019-01-30T12:08:51.293Z,2.70
2019-01-30T12:11:17.801Z,2.40
2019-01-30T12:13:44.501Z,2.53
2019-01-30T12:16:11.229Z,2.57
2019-01-30T12:18:37.829Z,2.30
2019-01-30T12:21:04.356Z,3.00
2019-01-30T12:23:30.943Z,2.80
2019-01-30T12:25:57.454Z,2.73
2019-01-30T12:28:26.666Z,3.10
2019-01-30T12:30:54.372Z,2.70
2019-01-30T12:33:20.979Z,3.00
2019-01-30T12:35:47.468Z,2.50
2019-01-30T12:38:14.193Z,2.67
2019-01-30T12:40:40.737Z,2.73
2019-01-30T12:43:07.363Z,2.50
2019-01-30T12:45:34.299Z,2.40
2019-01-30T12:48:01.215Z,3.17
2019-01-30T12:50:27.940Z,2.83
2019-01-30T12:52:54.595Z,3.17
2019-01-30T12:55:21.344Z,2.67
2019-01-30T12:57:48.153Z,2.93
2019-01-30T13:00:17.213Z,3.03
2019-01-30T13:02:43.779Z,2.80
2019-01-30T13:05:10.799Z,2.83
2019-01-30T13:07:43.994Z,3.07
2019-01-30T13:10:21.465Z,2.70
2019-01-30T13:12:56.600Z,2.20
2019-01-30T13:15:24.195Z,3.10
2019-01-30T13:17:51.031Z,2.90
2019-01-30T13:20:18.801Z,3.30
2019-01-30T13:22:45.487Z,3.20
2019-01-30T13:25:20.462Z,2.43
2019-01-30T13:27:46.964Z,2.90
2019-01-30T13:30:17.024Z,2.57
2019-01-30T13:32:43.569Z,2.90
2019-01-30T13:35:10.299Z,2.90
2019-01-30T13:37:36.886Z,2.67
2019-01-30T13:40:05.999Z,2.53
2019-01-30T13:42:32.606Z,2.47
2019-01-30T13:44:59.190Z,2.40
2019-01-30T13:47:26.186Z,2.40
2019-01-30T13:49:52.789Z,2.47
2019-01-30T13:52:19.339Z,3.00
2019-01-30T13:54:45.966Z,2.63
2019-01-30T13:57:12.552Z,2.90
2019-01-30T13:59:41.651Z,2.77
2019-01-30T14:02:08.227Z,2.70
2019-01-30T14:04:34.809Z,2.57
2019-01-30T14:07:01.369Z,2.60
2019-01-30T14:09:28.273Z,3.37
2019-01-30T14:11:55.044Z,2.57
2019-01-30T14:14:21.523Z,2.40
2019-01-30T14:16:48.282Z,3.03
2019-01-30T14:19:15.022Z,2.57
2019-01-30T14:21:42.163Z,2.77
2019-01-30T14:24:08.798Z,2.90
2019-01-30T14:26:35.624Z,2.40
2019-01-30T14:29:04.322Z,2.60
2019-01-30T14:31:30.983Z,2.80
2019-01-30T14:33:58.250Z,2.70
2019-01-30T14:36:25.129Z,2.87
2019-01-30T14:38:52.113Z,3.20
2019-01-30T14:41:18.665Z,2.60
2019-01-30T14:43:49.675Z,2.53
2019-01-30T14:46:16.588Z,2.70
2019-01-30T14:48:43.096Z,3.27
2019-01-30T14:51:12.586Z,2.93
2019-01-30T14:53:39.233Z,3.30
2019-01-30T14:56:05.778Z,3.07
2019-01-30T14:58:32.499Z,3.57
2019-01-30T15:00:59.593Z,2.93
2019-01-30T15:03:26.313Z,3.13
2019-01-30T15:05:52.973Z,2.40
2019-01-30T15:08:19.828Z,2.97
2019-01-30T15:10:46.417Z,2.70
2019-01-30T15:13:12.897Z,2.87
2019-01-30T15:15:39.473Z,3.00
2019-01-30T15:18:09.962Z,2.90
2019-01-30T15:20:37.651Z,3.43
2019-01-30T15:23:05.606Z,3.10
2019-01-30T15:25:33.257Z,3.10
2019-01-30T15:28:00.119Z,3.20
2019-01-30T15:30:29.445Z,2.50
2019-01-30T15:32:56.153Z,3.13
2019-01-30T15:35:33.130Z,2.90
2019-01-30T15:37:51.786Z,3.03
2019-01-30T15:40:25.048Z,3.60
2019-01-30T15:42:51.831Z,2.93
2019-01-30T15:45:21.875Z,3.60
2019-01-30T15:47:54.508Z,3.73
2019-01-30T15:50:25.057Z,4.47
2019-01-30T15:52:57.473Z,3.23
2019-01-30T15:55:28.710Z,4.17
2019-01-30T15:58:01.602Z,3.93
2019-01-30T16:00:46.297Z,3.70
2019-01-30T16:03:12.888Z,3.43
2019-01-30T16:05:44.900Z,3.40
2019-01-30T16:08:26.319Z,3.83
2019-01-30T16:10:52.957Z,3.97
2019-01-30T16:13:19.640Z,3.47
2019-01-30T16:15:53.015Z,3.27
2019-01-30T16:18:19.580Z,2.70
2019-01-30T16:20:49.390Z,3.23
2019-01-30T16:23:16.991Z,3.50
2019-01-30T16:25:43.473Z,3.43
2019-01-30T16:28:10.008Z,4.27
2019-01-30T16:30:36.940Z,3.80
2019-01-30T16:33:05.937Z,3.83
2019-01-30T16:35:32.553Z,3.57
2019-01-30T16:37:59.150Z,3.47
2019-01-30T16:40:28.561Z,3.93
2019-01-30T16:42:59.103Z,3.53
2019-01-30T16:45:28.777Z,3.37
2019-01-30T16:47:57.223Z,3.90
2019-01-30T16:50:23.803Z,3.53
2019-01-30T16:52:50.466Z,3.90
2019-01-30T16:55:20.111Z,3.90
2019-01-30T16:57:52.423Z,4.37
2019-01-30T17:00:21.802Z,3.80
2019-01-30T17:02:48.736Z,3.73
2019-01-30T17:05:20.853Z,3.37
2019-01-30T17:07:47.676Z,3.73
2019-01-30T17:10:14.475Z,4.27
2019-01-30T17:12:41.006Z,3.93
2019-01-30T17:15:15.245Z,3.13
2019-01-30T17:17:43.716Z,4.27
2019-01-30T17:20:25.586Z,3.60
2019-01-30T17:22:52.711Z,4.03
2019-01-30T17:25:19.765Z,4.03
2019-01-30T17:27:49.234Z,3.57
2019-01-30T17:30:46.171Z,3.60
2019-01-30T17:33:12.755Z,3.67
2019-01-30T17:35:41.520Z,3.67
2019-01-30T17:38:08.990Z,3.47
2019-01-30T17:40:36.110Z,4.10
2019-01-30T17:43:03.839Z,3.63
2019-01-30T17:45:31.426Z,3.63
2019-01-30T17:47:58.119Z,4.13
2019-01-30T17:50:24.849Z,3.77
2019-01-30T17:52:54.572Z,3.53
2019-01-30T17:55:21.273Z,3.10
2019-01-30T17:57:47.788Z,3.00
2019-01-30T18:00:22.260Z,2.83
2019-01-30T18:02:48.901Z,2.43
2019-01-30T18:05:15.831Z,3.30
2019-01-30T18:07:42.343Z,2.63
2019-01-30T18:10:09.372Z,2.90
2019-01-30T18:12:37.737Z,2.70
2019-01-30T18:15:04.979Z,2.27
2019-01-30T18:17:31.536Z,2.10
2019-01-30T18:20:01.432Z,2.00
2019-01-30T18:22:27.892Z,2.10
2019-01-30T18:24:54.404Z,1.63
2019-01-30T18:27:21.058Z,1.97
2019-01-30T18:29:50.721Z,1.47
2019-01-30T18:32:19.898Z,1.60
2019-01-30T18:34:46.520Z,1.53
2019-01-30T18:37:15.148Z,1.63
2019-01-30T18:39:42.006Z,1.50
2019-01-30T18:42:09.374Z,1.43
2019-01-30T18:44:35.915Z,1.30
2019-01-30T18:47:03.564Z,0.90
2019-01-30T18:49:30.333Z,1.20
2019-01-30T18:51:57.645Z,1.60
2019-01-30T18:54:24.249Z,1.40
2019-01-30T18:56:51.092Z,1.10
2019-01-30T18:59:17.983Z,1.03
2019-01-30T19:01:44.802Z,1.10
2019-01-30T19:04:11.399Z,1.10
2019-01-30T19:06:51.750Z,1.20
2019-01-30T19:09:09.634Z,1.00
2019-01-30T19:11:36.318Z,0.80
2019-01-30T19:14:02.976Z,0.90
2019-01-30T19:16:29.997Z,1.10
2019-01-30T19:18:56.746Z,1.00
2019-01-30T19:21:23.305Z,1.00
2019-01-30T19:23:49.802Z,0.80
2019-01-30T19:26:16.522Z,1.20
2019-01-30T19:28:43.070Z,0.87
2019-01-30T19:31:09.778Z,1.10
2019-01-30T19:33:36.432Z,0.90
2019-01-30T19:36:03.228Z,1.00
2019-01-30T19:38:29.731Z,0.90
2019-01-30T19:40:58.348Z,0.90
2019-01-30T19:43:26.091Z,0.90
2019-01-30T19:45:52.668Z,1.03
2019-01-30T19:48:19.514Z,1.00
2019-01-30T19:50:48.171Z,1.13
2019-01-30T19:53:14.687Z,1.40
2019-01-30T19:55:41.413Z,1.00
2019-01-30T19:58:08.005Z,0.97
2019-01-30T20:00:42.231Z,1.13
2019-01-30T20:03:11.729Z,1.30
2019-01-30T20:05:38.739Z,1.00
2019-01-30T20:08:06.631Z,1.23
2019-01-30T20:10:33.660Z,1.30
2019-01-30T20:13:00.451Z,1.30
2019-01-30T20:15:27.636Z,1.40
2019-01-30T20:17:54.431Z,1.70
2019-01-30T20:20:23.129Z,1.50
2019-01-30T20:22:49.795Z,1.63
2019-01-30T20:25:18.504Z,1.37
2019-01-30T20:27:47.297Z,1.40
2019-01-30T20:30:18.200Z,1.57
2019-01-30T20:32:45.462Z,1.37
2019-01-30T20:35:12.269Z,1.43
2019-01-30T20:37:38.786Z,1.80
2019-01-30T20:40:12.055Z,1.40
2019-01-30T20:42:38.710Z,1.47
2019-01-30T20:45:07.516Z,1.23
2019-01-30T20:47:34.007Z,1.27
2019-01-30T20:50:00.769Z,1.60
2019-01-30T20:52:27.247Z,1.50
2019-01-30T20:54:59.835Z,1.37
2019-01-30T20:57:22.625Z,1.50
2019-01-30T20:59:49.605Z,1.47
2019-01-30T21:02:16.520Z,1.50
2019-01-30T21:04:43.288Z,1.50
2019-01-30T21:07:09.808Z,1.53
2019-01-30T21:09:36.928Z,1.30
2019-01-30T21:12:03.550Z,1.30
2019-01-30T21:14:30.431Z,1.53
2019-01-30T21:16:56.940Z,1.67
2019-01-30T21:19:23.506Z,1.93
2019-01-30T21:21:50.034Z,1.60
2019-01-30T21:24:16.613Z,2.20
2019-01-30T21:26:43.363Z,1.67
2019-01-30T21:29:09.923Z,1.90
2019-01-30T21:31:36.419Z,1.40
2019-01-30T21:34:03.292Z,1.90
2019-01-30T21:36:30.019Z,1.40
2019-01-30T21:38:56.725Z,1.90
2019-01-30T21:41:23.710Z,1.80
2019-01-30T21:43:50.493Z,1.27
2019-01-30T21:46:22.192Z,1.43
2019-01-30T21:48:48.710Z,1.80
2019-01-30T21:51:15.563Z,1.40
2019-01-30T21:53:42.219Z,1.30
2019-01-30T21:56:09.988Z,1.47
2019-01-30T21:58:36.849Z,1.70
2019-01-30T22:01:03.504Z,1.50
2019-01-30T22:03:30.030Z,1.50
2019-01-30T22:06:08.564Z,1.37
2019-01-30T22:08:35.918Z,1.13
2019-01-30T22:11:10.976Z,1.20
2019-01-30T22:13:37.537Z,1.40
2019-01-30T22:16:04.319Z,1.50
2019-01-30T22:18:30.922Z,1.37
2019-01-30T22:20:57.552Z,0.90
2019-01-30T22:23:24.084Z,1.33
2019-01-30T22:25:50.776Z,1.03
2019-01-30T22:28:17.425Z,1.00
2019-01-30T22:30:43.925Z,0.97
2019-01-30T22:33:10.397Z,1.20
2019-01-30T22:35:37.042Z,1.10
2019-01-30T22:38:12.218Z,0.70
2019-01-30T22:40:32.319Z,0.80
2019-01-30T22:42:58.962Z,0.90
2019-01-30T22:45:34.758Z,0.93
2019-01-30T22:48:01.260Z,1.33
2019-01-30T22:50:27.757Z,0.90
2019-01-30T22:52:54.402Z,1.10
2019-01-30T22:55:21.775Z,1.20
2019-01-30T22:57:50.759Z,1.00
2019-01-30T23:00:50.944Z,0.83
2019-01-30T23:03:18.233Z,1.00
2019-01-30T23:06:31.226Z,1.30
2019-01-30T23:09:31.455Z,1.10
2019-01-30T23:12:34.301Z,0.93
2019-01-30T23:15:08.212Z,1.27
2019-01-30T23:17:55.925Z,0.83
2019-01-30T23:20:45.473Z,0.80
2019-01-30T23:23:46.206Z,1.03
2019-01-30T23:26:23.345Z,1.10
2019-01-30T23:29:38.147Z,1.10
2019-01-30T23:33:01.694Z,1.10
2019-01-30T23:36:15.451Z,1.40
2019-01-30T23:39:20.851Z,1.37
2019-01-30T23:42:05.805Z,1.40
2019-01-30T23:44:48.781Z,1.23
2019-01-30T23:47:56.265Z,1.93
2019-01-30T23:50:35.557Z,1.30
2019-01-30T23:53:48.345Z,1.57
2019-01-30T23:56:37.201Z,1.20
2019-01-30T23:59:20.743Z,1.30
